sensor_id;sensor_type;location;lat;lon;timestamp;pressure;altitude;pressure_sealevel;temperature;humidity
75945;BME280;64628;50.104;14.614;2022-11-20T00:00:48;98314.01;;;-4.00;51.79
75945;BME280;64628;50.104;14.614;2022-11-20T00:03:13;98316.29;;;-3.68;51.88
75945;BME280;64628;50.104;14.614;2022-11-20T00:05:39;98314.56;;;-3.33;51.97
75945;BME280;64628;50.104;14.614;2022-11-20T00:08:10;98313.78;;;-3.48;51.88
75945;BME280;64628;50.104;14.614;2022-11-20T00:10:40;98314.01;;;-3.09;51.68
75945;BME280;64628;50.104;14.614;2022-11-20T00:12:55;98314.32;;;-2.91;51.62
75945;BME280;64628;50.104;14.614;2022-11-20T00:15:26;98316.47;;;-3.33;51.54
75945;BME280;64628;50.104;14.614;2022-11-20T00:17:47;98322.09;;;-3.25;51.75
75945;BME280;64628;50.104;14.614;2022-11-20T00:20:12;98320.33;;;-2.90;51.90
75945;BME280;64628;50.104;14.614;2022-11-20T00:22:37;98318.91;;;-3.34;52.07
75945;BME280;64628;50.104;14.614;2022-11-20T00:25:08;98315.40;;;-2.91;51.56
75945;BME280;64628;50.104;14.614;2022-11-20T00:27:28;98316.04;;;-2.64;51.51
75945;BME280;64628;50.104;14.614;2022-11-20T00:29:59;98316.65;;;-2.79;51.16
75945;BME280;64628;50.104;14.614;2022-11-20T00:32:25;98318.69;;;-2.76;51.36
75945;BME280;64628;50.104;14.614;2022-11-20T00:34:54;98321.97;;;-2.75;51.31
75945;BME280;64628;50.104;14.614;2022-11-20T00:37:12;98317.66;;;-2.73;51.32
75945;BME280;64628;50.104;14.614;2022-11-20T00:39:35;98318.05;;;-2.67;50.97
75945;BME280;64628;50.104;14.614;2022-11-20T00:42:11;98316.25;;;-2.61;50.71
75945;BME280;64628;50.104;14.614;2022-11-20T00:44:28;98315.32;;;-2.65;51.24
75945;BME280;64628;50.104;14.614;2022-11-20T00:46:57;98318.42;;;-2.81;51.23
75945;BME280;64628;50.104;14.614;2022-11-20T00:49:17;98319.40;;;-2.62;51.63
75945;BME280;64628;50.104;14.614;2022-11-20T00:51:43;98313.81;;;-2.66;51.68
75945;BME280;64628;50.104;14.614;2022-11-20T00:54:08;98317.23;;;-2.54;51.42
75945;BME280;64628;50.104;14.614;2022-11-20T00:56:33;98312.21;;;-2.47;51.53
75945;BME280;64628;50.104;14.614;2022-11-20T00:59:00;98312.71;;;-2.20;51.15
75945;BME280;64628;50.104;14.614;2022-11-20T01:01:30;98316.52;;;-2.45;51.50
75945;BME280;64628;50.104;14.614;2022-11-20T01:03:51;98318.42;;;-2.47;51.28
75945;BME280;64628;50.104;14.614;2022-11-20T01:06:18;98314.58;;;-2.42;51.39
75945;BME280;64628;50.104;14.614;2022-11-20T01:08:42;98317.49;;;-2.35;51.01
75945;BME280;64628;50.104;14.614;2022-11-20T01:11:09;98326.22;;;-2.33;51.28
75945;BME280;64628;50.104;14.614;2022-11-20T01:13:32;98325.38;;;-2.21;50.80
75945;BME280;64628;50.104;14.614;2022-11-20T01:16:03;98324.48;;;-2.17;50.96
75945;BME280;64628;50.104;14.614;2022-11-20T01:18:22;98327.48;;;-2.39;51.07
75945;BME280;64628;50.104;14.614;2022-11-20T01:20:50;98334.68;;;-2.04;51.31
75945;BME280;64628;50.104;14.614;2022-11-20T01:23:13;98333.57;;;-1.96;50.93
75945;BME280;64628;50.104;14.614;2022-11-20T01:25:39;98334.06;;;-2.00;50.44
75945;BME280;64628;50.104;14.614;2022-11-20T01:28:04;98331.64;;;-1.70;50.27
75945;BME280;64628;50.104;14.614;2022-11-20T01:30:37;98332.32;;;-2.06;50.60
75945;BME280;64628;50.104;14.614;2022-11-20T01:32:55;98328.80;;;-2.13;50.91
75945;BME280;64628;50.104;14.614;2022-11-20T01:35:22;98322.01;;;-2.00;50.75
75945;BME280;64628;50.104;14.614;2022-11-20T01:37:46;98323.16;;;-2.01;51.15
75945;BME280;64628;50.104;14.614;2022-11-20T01:40:17;98323.94;;;-1.97;51.56
75945;BME280;64628;50.104;14.614;2022-11-20T01:42:43;98322.05;;;-2.10;50.89
75945;BME280;64628;50.104;14.614;2022-11-20T01:47:35;98319.02;;;-1.19;49.96
75945;BME280;64628;50.104;14.614;2022-11-20T01:52:29;98316.50;;;-1.72;50.03
75945;BME280;64628;50.104;14.614;2022-11-20T01:54:54;98316.36;;;-1.54;50.16
75945;BME280;64628;50.104;14.614;2022-11-20T01:57:12;98310.02;;;-1.81;50.27
75945;BME280;64628;50.104;14.614;2022-11-20T01:59:38;98305.73;;;-1.83;50.36
75945;BME280;64628;50.104;14.614;2022-11-20T02:02:03;98305.59;;;-1.99;50.28
75945;BME280;64628;50.104;14.614;2022-11-20T02:04:29;98300.99;;;-1.82;49.88
75945;BME280;64628;50.104;14.614;2022-11-20T02:07:04;98296.48;;;-1.88;50.20
75945;BME280;64628;50.104;14.614;2022-11-20T02:09:24;98294.69;;;-1.90;50.31
75945;BME280;64628;50.104;14.614;2022-11-20T02:11:49;98289.69;;;-1.65;49.73
75945;BME280;64628;50.104;14.614;2022-11-20T02:14:10;98287.60;;;-2.05;49.96
75945;BME280;64628;50.104;14.614;2022-11-20T02:16:39;98285.17;;;-2.08;50.12
75945;BME280;64628;50.104;14.614;2022-11-20T02:19:03;98283.99;;;-1.89;49.99
75945;BME280;64628;50.104;14.614;2022-11-20T02:21:34;98282.14;;;-2.06;50.13
75945;BME280;64628;50.104;14.614;2022-11-20T02:24:04;98277.02;;;-2.14;50.31
75945;BME280;64628;50.104;14.614;2022-11-20T02:26:18;98276.07;;;-2.34;50.00
75945;BME280;64628;50.104;14.614;2022-11-20T02:28:45;98277.12;;;-2.25;49.87
75945;BME280;64628;50.104;14.614;2022-11-20T02:31:08;98280.25;;;-2.57;50.36
75945;BME280;64628;50.104;14.614;2022-11-20T02:33:34;98283.33;;;-2.66;50.63
75945;BME280;64628;50.104;14.614;2022-11-20T02:36:00;98279.33;;;-2.64;50.56
75945;BME280;64628;50.104;14.614;2022-11-20T02:38:24;98280.75;;;-2.69;50.66
75945;BME280;64628;50.104;14.614;2022-11-20T02:40:54;98279.77;;;-2.64;50.66
75945;BME280;64628;50.104;14.614;2022-11-20T02:43:19;98282.59;;;-2.60;50.62
75945;BME280;64628;50.104;14.614;2022-11-20T02:45:40;98280.10;;;-2.31;50.28
75945;BME280;64628;50.104;14.614;2022-11-20T02:48:06;98280.02;;;-2.87;50.59
75945;BME280;64628;50.104;14.614;2022-11-20T02:50:30;98285.59;;;-2.73;50.73
75945;BME280;64628;50.104;14.614;2022-11-20T02:52:56;98281.94;;;-2.76;50.47
75945;BME280;64628;50.104;14.614;2022-11-20T02:55:22;98275.29;;;-2.81;50.44
75945;BME280;64628;50.104;14.614;2022-11-20T02:57:47;98276.48;;;-2.86;50.29
75945;BME280;64628;50.104;14.614;2022-11-20T03:00:19;98273.24;;;-2.96;50.49
75945;BME280;64628;50.104;14.614;2022-11-20T03:02:40;98270.73;;;-3.04;50.28
75945;BME280;64628;50.104;14.614;2022-11-20T03:05:06;98268.33;;;-2.87;50.15
75945;BME280;64628;50.104;14.614;2022-11-20T03:07:31;98265.47;;;-3.18;50.49
75945;BME280;64628;50.104;14.614;2022-11-20T03:09:55;98265.92;;;-2.86;50.56
75945;BME280;64628;50.104;14.614;2022-11-20T03:12:20;98264.22;;;-3.38;50.49
75945;BME280;64628;50.104;14.614;2022-11-20T03:15:01;98265.25;;;-3.26;50.56
75945;BME280;64628;50.104;14.614;2022-11-20T03:17:16;98272.11;;;-3.03;50.53
75945;BME280;64628;50.104;14.614;2022-11-20T03:19:38;98273.95;;;-2.98;50.49
75945;BME280;64628;50.104;14.614;2022-11-20T03:22:06;98273.92;;;-3.49;50.78
75945;BME280;64628;50.104;14.614;2022-11-20T03:24:26;98275.56;;;-3.31;51.15
75945;BME280;64628;50.104;14.614;2022-11-20T03:26:52;98272.39;;;-3.24;50.93
75945;BME280;64628;50.104;14.614;2022-11-20T03:29:18;98268.55;;;-3.22;50.64
75945;BME280;64628;50.104;14.614;2022-11-20T03:31:48;98269.69;;;-3.31;50.46
75945;BME280;64628;50.104;14.614;2022-11-20T03:34:14;98272.03;;;-2.86;50.63
75945;BME280;64628;50.104;14.614;2022-11-20T03:36:44;98278.63;;;-2.98;50.56
75945;BME280;64628;50.104;14.614;2022-11-20T03:39:05;98285.17;;;-3.24;50.79
75945;BME280;64628;50.104;14.614;2022-11-20T03:41:27;98285.10;;;-2.83;50.63
75945;BME280;64628;50.104;14.614;2022-11-20T03:43:52;98284.13;;;-2.75;50.86
75945;BME280;64628;50.104;14.614;2022-11-20T03:46:16;98282.31;;;-2.91;50.73
75945;BME280;64628;50.104;14.614;2022-11-20T03:48:40;98285.21;;;-2.82;50.69
75945;BME280;64628;50.104;14.614;2022-11-20T03:51:09;98283.87;;;-2.85;50.35
75945;BME280;64628;50.104;14.614;2022-11-20T03:53:36;98285.30;;;-2.79;50.56
75945;BME280;64628;50.104;14.614;2022-11-20T03:55:57;98287.96;;;-2.75;50.59
75945;BME280;64628;50.104;14.614;2022-11-20T03:58:22;98291.79;;;-2.77;50.33
75945;BME280;64628;50.104;14.614;2022-11-20T04:00:53;98288.33;;;-2.79;50.61
75945;BME280;64628;50.104;14.614;2022-11-20T04:03:13;98288.72;;;-2.82;50.08
75945;BME280;64628;50.104;14.614;2022-11-20T04:05:50;98284.14;;;-2.83;50.08
75945;BME280;64628;50.104;14.614;2022-11-20T04:08:05;98285.27;;;-2.85;50.50
75945;BME280;64628;50.104;14.614;2022-11-20T04:10:30;98283.21;;;-2.80;50.18
75945;BME280;64628;50.104;14.614;2022-11-20T04:12:56;98285.70;;;-2.73;49.74
75945;BME280;64628;50.104;14.614;2022-11-20T04:15:28;98286.78;;;-2.85;50.17
75945;BME280;64628;50.104;14.614;2022-11-20T04:20:13;98283.87;;;-2.71;50.48
75945;BME280;64628;50.104;14.614;2022-11-20T04:22:38;98282.44;;;-2.77;49.95
75945;BME280;64628;50.104;14.614;2022-11-20T04:25:04;98286.52;;;-2.66;49.95
75945;BME280;64628;50.104;14.614;2022-11-20T04:27:30;98289.07;;;-2.74;50.49
75945;BME280;64628;50.104;14.614;2022-11-20T04:29:54;98290.02;;;-2.73;50.39
75945;BME280;64628;50.104;14.614;2022-11-20T04:32:24;98294.64;;;-2.12;50.38
75945;BME280;64628;50.104;14.614;2022-11-20T04:34:46;98289.28;;;-2.83;50.63
75945;BME280;64628;50.104;14.614;2022-11-20T04:37:10;98290.11;;;-2.55;50.22
75945;BME280;64628;50.104;14.614;2022-11-20T04:39:36;98288.75;;;-2.50;50.50
75945;BME280;64628;50.104;14.614;2022-11-20T04:42:02;98290.74;;;-2.50;50.08
75945;BME280;64628;50.104;14.614;2022-11-20T04:44:26;98288.77;;;-2.56;50.25
75945;BME280;64628;50.104;14.614;2022-11-20T04:46:52;98289.46;;;-2.20;50.36
75945;BME280;64628;50.104;14.614;2022-11-20T04:49:18;98284.21;;;-2.44;50.50
75945;BME280;64628;50.104;14.614;2022-11-20T04:51:43;98278.99;;;-2.33;50.00
75945;BME280;64628;50.104;14.614;2022-11-20T04:54:09;98273.49;;;-2.36;50.18
75945;BME280;64628;50.104;14.614;2022-11-20T04:56:33;98269.71;;;-2.34;49.99
75945;BME280;64628;50.104;14.614;2022-11-20T04:59:00;98265.59;;;-2.31;49.78
75945;BME280;64628;50.104;14.614;2022-11-20T05:01:29;98260.59;;;-2.66;50.35
75945;BME280;64628;50.104;14.614;2022-11-20T05:03:51;98257.15;;;-2.62;50.28
75945;BME280;64628;50.104;14.614;2022-11-20T05:06:18;98252.44;;;-2.38;50.02
75945;BME280;64628;50.104;14.614;2022-11-20T05:08:40;98245.80;;;-2.44;49.61
75945;BME280;64628;50.104;14.614;2022-11-20T05:11:09;98243.09;;;-2.34;49.69
75945;BME280;64628;50.104;14.614;2022-11-20T05:13:32;98244.68;;;-2.39;49.79
75945;BME280;64628;50.104;14.614;2022-11-20T05:16:01;98244.88;;;-2.51;50.00
75945;BME280;64628;50.104;14.614;2022-11-20T05:18:24;98249.14;;;-2.29;49.62
75945;BME280;64628;50.104;14.614;2022-11-20T05:20:54;98248.36;;;-2.50;49.56
75945;BME280;64628;50.104;14.614;2022-11-20T05:23:14;98240.03;;;-2.69;49.88
75945;BME280;64628;50.104;14.614;2022-11-20T05:25:47;98241.80;;;-2.52;50.07
75945;BME280;64628;50.104;14.614;2022-11-20T05:28:06;98248.17;;;-2.45;49.99
75945;BME280;64628;50.104;14.614;2022-11-20T05:30:37;98255.35;;;-2.35;49.56
75945;BME280;64628;50.104;14.614;2022-11-20T05:32:55;98252.53;;;-2.35;49.99
75945;BME280;64628;50.104;14.614;2022-11-20T05:35:21;98251.63;;;-2.31;49.72
75945;BME280;64628;50.104;14.614;2022-11-20T05:37:52;98248.84;;;-2.42;49.87
75945;BME280;64628;50.104;14.614;2022-11-20T05:40:13;98251.86;;;-2.42;49.31
75945;BME280;64628;50.104;14.614;2022-11-20T05:42:38;98248.60;;;-2.18;49.49
75945;BME280;64628;50.104;14.614;2022-11-20T05:45:04;98247.09;;;-2.48;49.74
75945;BME280;64628;50.104;14.614;2022-11-20T05:47:33;98243.15;;;-2.05;49.46
75945;BME280;64628;50.104;14.614;2022-11-20T05:49:55;98243.59;;;-2.28;49.42
75945;BME280;64628;50.104;14.614;2022-11-20T05:52:20;98237.74;;;-2.21;49.54
75945;BME280;64628;50.104;14.614;2022-11-20T05:54:46;98234.42;;;-2.11;49.21
75945;BME280;64628;50.104;14.614;2022-11-20T05:57:21;98236.84;;;-2.12;49.69
75945;BME280;64628;50.104;14.614;2022-11-20T05:59:38;98240.06;;;-2.04;49.69
75945;BME280;64628;50.104;14.614;2022-11-20T06:02:02;98243.55;;;-2.25;50.07
75945;BME280;64628;50.104;14.614;2022-11-20T06:04:41;98239.43;;;-2.03;49.41
75945;BME280;64628;50.104;14.614;2022-11-20T06:06:53;98236.92;;;-2.11;49.49
75945;BME280;64628;50.104;14.614;2022-11-20T06:09:18;98236.91;;;-1.82;49.20
75945;BME280;64628;50.104;14.614;2022-11-20T06:11:54;98240.66;;;-1.85;48.94
75945;BME280;64628;50.104;14.614;2022-11-20T06:14:10;98242.68;;;-1.81;49.16
75945;BME280;64628;50.104;14.614;2022-11-20T06:16:35;98240.00;;;-1.93;48.93
75945;BME280;64628;50.104;14.614;2022-11-20T06:19:00;98240.11;;;-1.96;49.29
75945;BME280;64628;50.104;14.614;2022-11-20T06:21:27;98240.81;;;-1.65;49.31
75945;BME280;64628;50.104;14.614;2022-11-20T06:23:53;98239.49;;;-1.45;48.73
75945;BME280;64628;50.104;14.614;2022-11-20T06:26:18;98235.86;;;-2.03;49.44
75945;BME280;64628;50.104;14.614;2022-11-20T06:28:49;98238.16;;;-1.55;49.22
75945;BME280;64628;50.104;14.614;2022-11-20T06:31:11;98232.64;;;-1.61;49.30
75945;BME280;64628;50.104;14.614;2022-11-20T06:33:34;98230.03;;;-1.76;49.61
75945;BME280;64628;50.104;14.614;2022-11-20T06:36:02;98229.42;;;-2.05;49.57
75945;BME280;64628;50.104;14.614;2022-11-20T06:38:27;98228.15;;;-1.50;49.76
75945;BME280;64628;50.104;14.614;2022-11-20T06:40:50;98228.21;;;-1.66;49.39
75945;BME280;64628;50.104;14.614;2022-11-20T06:43:16;98228.42;;;-1.44;48.95
75945;BME280;64628;50.104;14.614;2022-11-20T06:45:41;98234.04;;;-1.61;49.77
75945;BME280;64628;50.104;14.614;2022-11-20T06:48:17;98228.09;;;-1.51;49.58
75945;BME280;64628;50.104;14.614;2022-11-20T06:50:37;98229.63;;;-1.75;49.49
75945;BME280;64628;50.104;14.614;2022-11-20T06:53:02;98238.64;;;-1.63;49.22
75945;BME280;64628;50.104;14.614;2022-11-20T06:55:24;98245.09;;;-1.51;49.43
75945;BME280;64628;50.104;14.614;2022-11-20T06:57:50;98239.14;;;-1.88;49.21
75945;BME280;64628;50.104;14.614;2022-11-20T07:00:15;98240.21;;;-1.35;49.85
75945;BME280;64628;50.104;14.614;2022-11-20T07:02:41;98236.98;;;-1.45;49.74
75945;BME280;64628;50.104;14.614;2022-11-20T07:05:07;98233.81;;;-1.56;49.19
75945;BME280;64628;50.104;14.614;2022-11-20T07:07:32;98230.49;;;-1.37;48.80
75945;BME280;64628;50.104;14.614;2022-11-20T07:09:57;98234.29;;;-1.07;48.65
75945;BME280;64628;50.104;14.614;2022-11-20T07:12:23;98230.92;;;-1.43;47.94
75945;BME280;64628;50.104;14.614;2022-11-20T07:14:49;98215.88;;;-1.12;48.11
75945;BME280;64628;50.104;14.614;2022-11-20T07:17:14;98206.41;;;-1.26;48.27
75945;BME280;64628;50.104;14.614;2022-11-20T07:19:39;98200.91;;;-1.17;48.66
75945;BME280;64628;50.104;14.614;2022-11-20T07:22:05;98204.49;;;-1.02;48.96
75945;BME280;64628;50.104;14.614;2022-11-20T07:24:30;98200.13;;;-0.97;48.49
75945;BME280;64628;50.104;14.614;2022-11-20T07:26:56;98210.45;;;-1.25;48.68
75945;BME280;64628;50.104;14.614;2022-11-20T07:29:21;98219.94;;;-1.04;47.93
75945;BME280;64628;50.104;14.614;2022-11-20T07:31:47;98222.56;;;-0.94;48.15
75945;BME280;64628;50.104;14.614;2022-11-20T07:34:13;98231.12;;;-1.32;47.45
75945;BME280;64628;50.104;14.614;2022-11-20T07:36:38;98237.77;;;-0.95;47.67
75945;BME280;64628;50.104;14.614;2022-11-20T07:39:04;98238.04;;;-0.63;47.20
75945;BME280;64628;50.104;14.614;2022-11-20T07:41:29;98224.68;;;-0.59;46.41
75945;BME280;64628;50.104;14.614;2022-11-20T07:43:54;98233.25;;;-0.86;46.61
75945;BME280;64628;50.104;14.614;2022-11-20T07:46:20;98240.91;;;-0.13;46.52
75945;BME280;64628;50.104;14.614;2022-11-20T07:48:45;98243.29;;;-0.09;46.00
75945;BME280;64628;50.104;14.614;2022-11-20T07:51:10;98231.48;;;-0.47;45.36
75945;BME280;64628;50.104;14.614;2022-11-20T07:53:36;98235.46;;;-0.29;45.06
75945;BME280;64628;50.104;14.614;2022-11-20T07:56:01;98236.04;;;-0.45;45.48
75945;BME280;64628;50.104;14.614;2022-11-20T07:58:29;98230.16;;;-0.50;46.10
75945;BME280;64628;50.104;14.614;2022-11-20T08:00:58;98223.91;;;-0.38;45.94
75945;BME280;64628;50.104;14.614;2022-11-20T08:03:19;98222.09;;;-0.42;46.80
75945;BME280;64628;50.104;14.614;2022-11-20T08:05:44;98224.50;;;-0.36;47.44
75945;BME280;64628;50.104;14.614;2022-11-20T08:08:10;98226.07;;;-0.36;47.36
75945;BME280;64628;50.104;14.614;2022-11-20T08:10:35;98222.54;;;-0.29;46.96
75945;BME280;64628;50.104;14.614;2022-11-20T08:13:01;98216.96;;;0.01;45.63
75945;BME280;64628;50.104;14.614;2022-11-20T08:15:27;98212.24;;;0.16;45.57
75945;BME280;64628;50.104;14.614;2022-11-20T08:17:59;98206.91;;;0.19;46.12
75945;BME280;64628;50.104;14.614;2022-11-20T08:20:18;98211.63;;;0.56;45.93
75945;BME280;64628;50.104;14.614;2022-11-20T08:22:44;98205.40;;;1.08;45.63
75945;BME280;64628;50.104;14.614;2022-11-20T08:25:08;98215.42;;;0.83;45.63
75945;BME280;64628;50.104;14.614;2022-11-20T08:27:34;98208.33;;;0.96;45.28
75945;BME280;64628;50.104;14.614;2022-11-20T08:30:00;98205.62;;;0.81;45.93
75945;BME280;64628;50.104;14.614;2022-11-20T08:32:31;98198.41;;;0.77;46.10
75945;BME280;64628;50.104;14.614;2022-11-20T08:34:56;98198.55;;;0.70;46.06
75945;BME280;64628;50.104;14.614;2022-11-20T08:37:16;98199.75;;;0.90;45.92
75945;BME280;64628;50.104;14.614;2022-11-20T08:39:42;98192.32;;;0.86;45.67
75945;BME280;64628;50.104;14.614;2022-11-20T08:42:07;98197.89;;;1.03;45.12
75945;BME280;64628;50.104;14.614;2022-11-20T08:44:33;98195.72;;;1.11;45.09
75945;BME280;64628;50.104;14.614;2022-11-20T08:47:00;98194.71;;;1.39;44.68
75945;BME280;64628;50.104;14.614;2022-11-20T08:49:24;98192.15;;;1.09;44.85
75945;BME280;64628;50.104;14.614;2022-11-20T08:51:49;98192.01;;;0.96;44.69
75945;BME280;64628;50.104;14.614;2022-11-20T08:54:15;98189.23;;;0.91;45.73
75945;BME280;64628;50.104;14.614;2022-11-20T08:56:45;98192.52;;;0.64;46.86
75945;BME280;64628;50.104;14.614;2022-11-20T08:59:06;98186.42;;;0.90;46.56
75945;BME280;64628;50.104;14.614;2022-11-20T09:01:31;98185.62;;;0.62;46.28
75945;BME280;64628;50.104;14.614;2022-11-20T09:03:56;98178.35;;;0.97;46.16
75945;BME280;64628;50.104;14.614;2022-11-20T09:06:21;98181.70;;;1.12;46.15
75945;BME280;64628;50.104;14.614;2022-11-20T09:08:46;98169.29;;;1.27;45.93
75945;BME280;64628;50.104;14.614;2022-11-20T09:11:14;98165.33;;;1.49;46.06
75945;BME280;64628;50.104;14.614;2022-11-20T09:13:37;98165.95;;;1.31;46.06
75945;BME280;64628;50.104;14.614;2022-11-20T09:16:04;98176.15;;;1.38;45.90
75945;BME280;64628;50.104;14.614;2022-11-20T09:18:30;98187.27;;;1.39;45.82
75945;BME280;64628;50.104;14.614;2022-11-20T09:20:56;98194.37;;;1.08;46.57
75945;BME280;64628;50.104;14.614;2022-11-20T09:23:18;98192.02;;;0.76;46.63
75945;BME280;64628;50.104;14.614;2022-11-20T09:25:44;98187.88;;;0.94;46.76
75945;BME280;64628;50.104;14.614;2022-11-20T09:28:09;98183.63;;;1.00;46.93
75945;BME280;64628;50.104;14.614;2022-11-20T09:30:34;98185.74;;;1.17;46.26
75945;BME280;64628;50.104;14.614;2022-11-20T09:33:01;98185.36;;;1.50;47.08
75945;BME280;64628;50.104;14.614;2022-11-20T09:35:35;98179.27;;;1.04;46.65
75945;BME280;64628;50.104;14.614;2022-11-20T09:37:51;98172.76;;;1.18;47.06
75945;BME280;64628;50.104;14.614;2022-11-20T09:40:22;98185.60;;;1.21;46.79
75945;BME280;64628;50.104;14.614;2022-11-20T09:42:46;98184.24;;;0.95;47.06
75945;BME280;64628;50.104;14.614;2022-11-20T09:45:18;98188.19;;;0.66;46.63
75945;BME280;64628;50.104;14.614;2022-11-20T09:47:43;98186.15;;;0.75;46.82
75945;BME280;64628;50.104;14.614;2022-11-20T09:50:10;98177.02;;;0.98;47.71
75945;BME280;64628;50.104;14.614;2022-11-20T09:52:32;98163.95;;;1.09;46.74
75945;BME280;64628;50.104;14.614;2022-11-20T09:54:56;98159.38;;;0.89;46.79
75945;BME280;64628;50.104;14.614;2022-11-20T09:57:17;98157.92;;;1.35;46.22
75945;BME280;64628;50.104;14.614;2022-11-20T09:59:41;98148.91;;;1.17;46.45
75945;BME280;64628;50.104;14.614;2022-11-20T10:02:16;98144.04;;;1.10;46.56
75945;BME280;64628;50.104;14.614;2022-11-20T10:04:31;98147.07;;;1.07;47.58
75945;BME280;64628;50.104;14.614;2022-11-20T10:07:02;98139.62;;;1.25;47.57
75945;BME280;64628;50.104;14.614;2022-11-20T10:14:24;98135.06;;;1.10;47.89
75945;BME280;64628;50.104;14.614;2022-11-20T10:16:49;98137.99;;;1.10;47.83
75945;BME280;64628;50.104;14.614;2022-11-20T10:21:35;98137.80;;;1.13;48.18
75945;BME280;64628;50.104;14.614;2022-11-20T10:26:29;98133.23;;;1.59;48.13
75945;BME280;64628;50.104;14.614;2022-11-20T10:31:25;98121.08;;;1.41;48.02
75945;BME280;64628;50.104;14.614;2022-11-20T10:33:38;98114.27;;;1.62;47.68
75945;BME280;64628;50.104;14.614;2022-11-20T10:36:08;98116.14;;;1.43;48.07
75945;BME280;64628;50.104;14.614;2022-11-20T10:38:29;98122.26;;;1.28;48.46
75945;BME280;64628;50.104;14.614;2022-11-20T10:41:00;98135.00;;;1.35;48.49
75945;BME280;64628;50.104;14.614;2022-11-20T10:43:19;98139.59;;;1.31;47.68
75945;BME280;64628;50.104;14.614;2022-11-20T10:45:58;98129.16;;;1.12;48.13
75945;BME280;64628;50.104;14.614;2022-11-20T10:48:15;98110.29;;;1.13;48.60
75945;BME280;64628;50.104;14.614;2022-11-20T10:50:36;98104.58;;;1.05;48.09
75945;BME280;64628;50.104;14.614;2022-11-20T10:55:37;98116.15;;;1.12;48.59
75945;BME280;64628;50.104;14.614;2022-11-20T10:58:07;98110.44;;;1.57;48.03
75945;BME280;64628;50.104;14.614;2022-11-20T11:00:15;98119.02;;;1.52;48.80
75945;BME280;64628;50.104;14.614;2022-11-20T11:02:49;98110.22;;;1.12;48.64
75945;BME280;64628;50.104;14.614;2022-11-20T11:05:17;98114.82;;;1.34;48.83
75945;BME280;64628;50.104;14.614;2022-11-20T11:07:36;98110.86;;;1.38;48.78
75945;BME280;64628;50.104;14.614;2022-11-20T11:12:25;98110.21;;;1.35;48.99
75945;BME280;64628;50.104;14.614;2022-11-20T11:14:51;98105.41;;;1.58;48.75
75945;BME280;64628;50.104;14.614;2022-11-20T11:17:29;98103.67;;;1.32;48.86
75945;BME280;64628;50.104;14.614;2022-11-20T11:19:42;98094.06;;;1.19;48.62
75945;BME280;64628;50.104;14.614;2022-11-20T11:22:10;98084.32;;;1.38;48.75
75945;BME280;64628;50.104;14.614;2022-11-20T11:24:30;98074.90;;;1.73;48.44
75945;BME280;64628;50.104;14.614;2022-11-20T11:26:57;98070.30;;;1.67;47.91
75945;BME280;64628;50.104;14.614;2022-11-20T11:29:19;98064.52;;;2.37;47.27
75945;BME280;64628;50.104;14.614;2022-11-20T11:31:45;98062.83;;;2.56;46.79
75945;BME280;64628;50.104;14.614;2022-11-20T11:34:12;98066.94;;;2.29;46.97
75945;BME280;64628;50.104;14.614;2022-11-20T11:36:35;98069.51;;;2.49;47.25
75945;BME280;64628;50.104;14.614;2022-11-20T11:39:03;98073.39;;;2.43;46.27
75945;BME280;64628;50.104;14.614;2022-11-20T11:41:30;98081.82;;;2.53;47.41
75945;BME280;64628;50.104;14.614;2022-11-20T11:43:54;98082.63;;;2.81;47.45
75945;BME280;64628;50.104;14.614;2022-11-20T11:46:27;98082.36;;;2.87;47.58
75945;BME280;64628;50.104;14.614;2022-11-20T11:51:09;98073.05;;;3.07;46.71
75945;BME280;64628;50.104;14.614;2022-11-20T11:53:40;98072.23;;;3.17;47.02
75945;BME280;64628;50.104;14.614;2022-11-20T11:56:05;98068.06;;;3.06;46.91
75945;BME280;64628;50.104;14.614;2022-11-20T11:58:38;98068.76;;;3.17;47.09
75945;BME280;64628;50.104;14.614;2022-11-20T12:00:56;98063.55;;;2.81;46.65
75945;BME280;64628;50.104;14.614;2022-11-20T12:03:20;98055.42;;;3.45;47.15
75945;BME280;64628;50.104;14.614;2022-11-20T12:05:45;98049.97;;;3.52;47.09
75945;BME280;64628;50.104;14.614;2022-11-20T12:08:16;98051.41;;;3.01;46.72
75945;BME280;64628;50.104;14.614;2022-11-20T12:10:41;98053.71;;;3.27;46.64
75945;BME280;64628;50.104;14.614;2022-11-20T12:13:04;98061.77;;;3.57;46.99
75945;BME280;64628;50.104;14.614;2022-11-20T12:15:28;98062.91;;;3.44;46.35
75945;BME280;64628;50.104;14.614;2022-11-20T12:17:49;98068.72;;;3.24;46.91
75945;BME280;64628;50.104;14.614;2022-11-20T12:20:16;98065.77;;;3.38;47.04
75945;BME280;64628;50.104;14.614;2022-11-20T12:22:47;98058.15;;;3.02;47.32
75945;BME280;64628;50.104;14.614;2022-11-20T12:25:10;98053.85;;;3.13;47.76
75945;BME280;64628;50.104;14.614;2022-11-20T12:27:44;98049.29;;;2.88;47.28
75945;BME280;64628;50.104;14.614;2022-11-20T12:30:02;98045.85;;;3.27;47.42
75945;BME280;64628;50.104;14.614;2022-11-20T12:32:36;98041.91;;;3.13;47.12
75945;BME280;64628;50.104;14.614;2022-11-20T12:34:58;98038.41;;;2.90;47.68
75945;BME280;64628;50.104;14.614;2022-11-20T12:37:28;98036.07;;;2.83;47.87
75945;BME280;64628;50.104;14.614;2022-11-20T12:39:41;98027.96;;;2.74;47.92
75945;BME280;64628;50.104;14.614;2022-11-20T12:42:23;98021.12;;;2.60;47.73
75945;BME280;64628;50.104;14.614;2022-11-20T12:44:45;98024.94;;;2.46;47.79
75945;BME280;64628;50.104;14.614;2022-11-20T12:47:06;98020.89;;;2.49;48.46
75945;BME280;64628;50.104;14.614;2022-11-20T12:49:32;98020.01;;;2.49;48.12
75945;BME280;64628;50.104;14.614;2022-11-20T12:51:57;98017.65;;;2.55;48.08
75945;BME280;64628;50.104;14.614;2022-11-20T12:54:31;98017.60;;;2.44;47.64
75945;BME280;64628;50.104;14.614;2022-11-20T12:56:46;98010.59;;;2.34;47.92
75945;BME280;64628;50.104;14.614;2022-11-20T13:01:35;98006.47;;;2.32;48.86
75945;BME280;64628;50.104;14.614;2022-11-20T13:03:57;98009.63;;;2.70;48.73
75945;BME280;64628;50.104;14.614;2022-11-20T13:06:21;98010.70;;;2.63;48.34
75945;BME280;64628;50.104;14.614;2022-11-20T13:08:52;98010.77;;;2.61;48.51
75945;BME280;64628;50.104;14.614;2022-11-20T13:11:18;98007.35;;;2.57;47.84